Demo 6
Misión y Visión

La misión es proporcionar información fiable a la navegación aérea, contribuyendo a la seguridad, regularidad y eficiencia de la Navegación Aérea Internacional

La visión es contribuir sustancialmente al desarrollo de conocimientos y a la utilización de la meteorología aeronáutica a nivel nacional e internacional, mediante la innovación y la coparticipación con sectores sociales y productivos de la sociedad.

 
  Inicio
  Metar
  Taf
  Wintemp
  SIGMET
  Avisos
  Pronósticos
  Carpeta Meteorologica
  Imágenes Satelitales
  Climatología Aeronáutica
   
  ¿Quienes Somos?
  Contacto
  Eventos
Taf

 

IMÁGENES DEL AEROPUERTO
(EN CONSTRUCCION)

 

PRONOSTICO DE AERÓDROMO
TAF / PROYECCION CLIMATICA
MES DE JULIO

 

AEROPUERTO ENRIQUE MALEK:

TAF MPDA 092300Z 1000/1012 22006KT 9999 SCT020


TAF:



 

AEROPUERTO PANAMA PACIFICO:

hola



TAF:



AEROPUERTO MARCOS A. GELABERT:

TAF MPMG 092300Z 1000/1012 33008KT 9999 SCT020



TAF:



AEROPUERTO INTL. DE TOCUMEN:

TAF MPTO 092300Z 1000/1106 02007KT 9999 SCT020 TEMPO 1004/1008 00000KT PROB30 TEMPO 1018/1022 16007KT 7000 SHRA SCT018TCU



TAF:

TAF MPPA 092300Z 1000/1106 01006KT 9999 FEW020 PROB30 TEMPO 1018/1022 20006KT 7000 SHRA SCT018TCU


 
 

Found

The document has moved here.